VOZ943 YSSY-YBBN
Flight info
| Callsign | VOZ943 |
|---|---|
| Flight time | 1h 9m |
| Altitude | 35000 |
| Route | OLSEM Y193 BANDA H252 GOMOL |
| Aircraft | B738/M-SDE2E3FGHIRWXY/LB1 |
Departure
| Time | 2026-04-30 03:54 |
|---|---|
| Airport | Sydney Kingsford Smith International Airport (YSSY) |
Arrival
| Time | 2026-04-30 05:03 |
|---|---|
| Airport | Brisbane International Airport (YBBN) |
| Time | Latitude | Longitude | Altitude | Speed | Heading |
|---|---|---|---|---|---|
| 2026-04-30 03:09 | -33.93522 | 151.17917 | 29 ft | 0 kts | 101° |
| 2026-04-30 03:39 | -33.93521 | 151.17908 | 29 ft | 2 kts | 99° |
| 2026-04-30 03:39 | -33.93519 | 151.17888 | 29 ft | 2 kts | 97° |
| 2026-04-30 03:40 | -33.93517 | 151.17868 | 29 ft | 2 kts | 99° |
| 2026-04-30 03:40 | -33.93513 | 151.17849 | 29 ft | 2 kts | 124° |
| 2026-04-30 03:40 | -33.93500 | 151.17843 | 29 ft | 1 kts | 188° |
| 2026-04-30 03:40 | -33.93497 | 151.17843 | 29 ft | 0 kts | 189° |
| 2026-04-30 03:43 | -33.93502 | 151.17842 | 29 ft | 4 kts | 189° |
| 2026-04-30 03:43 | -33.93562 | 151.17831 | 29 ft | 13 kts | 189° |
| 2026-04-30 03:44 | -33.93669 | 151.17804 | 29 ft | 17 kts | 193° |
| 2026-04-30 03:44 | -33.93780 | 151.17772 | 29 ft | 16 kts | 193° |
| 2026-04-30 03:44 | -33.93888 | 151.17776 | 29 ft | 16 kts | 168° |
| 2026-04-30 03:44 | -33.94002 | 151.17806 | 28 ft | 18 kts | 168° |
| 2026-04-30 03:45 | -33.94121 | 151.17837 | 28 ft | 17 kts | 168° |
| 2026-04-30 03:45 | -33.94247 | 151.17869 | 29 ft | 20 kts | 168° |
| 2026-04-30 03:45 | -33.94389 | 151.17905 | 29 ft | 21 kts | 168° |
| 2026-04-30 03:45 | -33.94509 | 151.17881 | 29 ft | 16 kts | 183° |
| 2026-04-30 03:46 | -33.94614 | 151.17906 | 29 ft | 16 kts | 168° |
| 2026-04-30 03:46 | -33.94755 | 151.17942 | 29 ft | 22 kts | 167° |
| 2026-04-30 03:46 | -33.94893 | 151.17978 | 29 ft | 20 kts | 167° |
| 2026-04-30 03:46 | -33.95028 | 151.18013 | 29 ft | 20 kts | 168° |
| 2026-04-30 03:47 | -33.95099 | 151.18110 | 29 ft | 17 kts | 75° |
| 2026-04-30 03:47 | -33.95074 | 151.18250 | 29 ft | 17 kts | 78° |
| 2026-04-30 03:47 | -33.95050 | 151.18382 | 29 ft | 16 kts | 77° |
| 2026-04-30 03:47 | -33.95068 | 151.18504 | 29 ft | 17 kts | 146° |
| 2026-04-30 03:48 | -33.95164 | 151.18598 | 29 ft | 19 kts | 137° |
| 2026-04-30 03:48 | -33.95283 | 151.18703 | 29 ft | 22 kts | 155° |
| 2026-04-30 03:48 | -33.95432 | 151.18749 | 29 ft | 22 kts | 167° |
| 2026-04-30 03:48 | -33.95578 | 151.18787 | 29 ft | 21 kts | 167° |
| 2026-04-30 03:49 | -33.95719 | 151.18824 | 29 ft | 21 kts | 168° |
| 2026-04-30 03:49 | -33.95857 | 151.18859 | 29 ft | 20 kts | 168° |
| 2026-04-30 03:49 | -33.95997 | 151.18896 | 29 ft | 21 kts | 168° |
| 2026-04-30 03:49 | -33.96140 | 151.18934 | 29 ft | 21 kts | 167° |
| 2026-04-30 03:50 | -33.96279 | 151.18971 | 29 ft | 20 kts | 169° |
| 2026-04-30 03:50 | -33.96413 | 151.19004 | 29 ft | 20 kts | 167° |
| 2026-04-30 03:50 | -33.96544 | 151.19038 | 29 ft | 19 kts | 168° |
| 2026-04-30 03:50 | -33.96671 | 151.19070 | 29 ft | 18 kts | 168° |
| 2026-04-30 03:51 | -33.96795 | 151.19063 | 29 ft | 18 kts | 182° |
| 2026-04-30 03:51 | -33.96914 | 151.19088 | 29 ft | 17 kts | 169° |
| 2026-04-30 03:51 | -33.97027 | 151.19119 | 29 ft | 15 kts | 167° |
| 2026-04-30 03:51 | -33.97119 | 151.19164 | 29 ft | 15 kts | 124° |
| 2026-04-30 03:52 | -33.97114 | 151.19261 | 28 ft | 0 kts | 78° |
| 2026-04-30 03:52 | -33.97114 | 151.19262 | 28 ft | 0 kts | 78° |
| 2026-04-30 03:52 | -33.97113 | 151.19269 | 28 ft | 3 kts | 78° |
| 2026-04-30 03:52 | -33.97100 | 151.19341 | 26 ft | 13 kts | 79° |
| 2026-04-30 03:53 | -33.97029 | 151.19366 | 25 ft | 13 kts | 347° |
| 2026-04-30 03:53 | -33.96886 | 151.19327 | 25 ft | 43 kts | 348° |
| 2026-04-30 03:53 | -33.96358 | 151.19189 | 25 ft | 110 kts | 348° |
| 2026-04-30 03:53 | -33.95444 | 151.18948 | 40 ft | 159 kts | 350° |
| 2026-04-30 03:54 | -33.94340 | 151.18630 | 557 ft | 167 kts | 349° |
| 2026-04-30 03:54 | -33.93201 | 151.18691 | 1158 ft | 168 kts | 28° |
| 2026-04-30 03:54 | -33.92254 | 151.19543 | 1807 ft | 175 kts | 39° |
| 2026-04-30 03:54 | -33.91252 | 151.20520 | 2312 ft | 193 kts | 38° |
| 2026-04-30 03:55 | -33.90144 | 151.21545 | 2747 ft | 209 kts | 37° |
| 2026-04-30 03:55 | -33.88914 | 151.22648 | 3011 ft | 233 kts | 36° |
| 2026-04-30 03:55 | -33.87534 | 151.23855 | 3428 ft | 250 kts | 36° |
| 2026-04-30 03:55 | -33.86109 | 151.25094 | 4230 ft | 255 kts | 36° |
| 2026-04-30 03:56 | -33.84667 | 151.26351 | 5070 ft | 256 kts | 38° |
| 2026-04-30 03:56 | -33.83535 | 151.28003 | 5798 ft | 260 kts | 65° |
| 2026-04-30 03:56 | -33.82899 | 151.30015 | 6599 ft | 261 kts | 71° |
| 2026-04-30 03:56 | -33.82336 | 151.32111 | 7337 ft | 265 kts | 72° |
| 2026-04-30 03:57 | -33.81783 | 151.34248 | 8063 ft | 269 kts | 73° |
| 2026-04-30 03:57 | -33.81106 | 151.36374 | 8703 ft | 276 kts | 58° |
| 2026-04-30 03:57 | -33.79935 | 151.38225 | 9452 ft | 278 kts | 51° |
| 2026-04-30 03:57 | -33.78692 | 151.40031 | 10198 ft | 282 kts | 50° |
| 2026-04-30 03:58 | -33.77415 | 151.41886 | 10460 ft | 303 kts | 50° |
| 2026-04-30 03:58 | -33.76030 | 151.43911 | 10648 ft | 324 kts | 51° |
| 2026-04-30 03:58 | -33.74575 | 151.46048 | 11101 ft | 335 kts | 51° |
| 2026-04-30 03:58 | -33.73089 | 151.48241 | 11709 ft | 339 kts | 50° |
| 2026-04-30 03:59 | -33.71599 | 151.50444 | 12413 ft | 342 kts | 50° |
| 2026-04-30 03:59 | -33.70087 | 151.52681 | 13056 ft | 347 kts | 50° |
| 2026-04-30 03:59 | -33.68556 | 151.54951 | 13700 ft | 352 kts | 50° |
| 2026-04-30 03:59 | -33.67002 | 151.57251 | 14353 ft | 356 kts | 50° |
| 2026-04-30 04:00 | -33.65427 | 151.59574 | 14977 ft | 360 kts | 49° |
| 2026-04-30 04:00 | -33.63611 | 151.61597 | 15590 ft | 363 kts | 34° |
| 2026-04-30 04:00 | -33.61481 | 151.63250 | 16261 ft | 366 kts | 32° |
| 2026-04-30 04:00 | -33.59309 | 151.64907 | 16859 ft | 372 kts | 32° |
| 2026-04-30 04:01 | -33.57118 | 151.66598 | 17451 ft | 377 kts | 33° |
| 2026-04-30 04:01 | -33.54902 | 151.68334 | 18065 ft | 381 kts | 34° |
| 2026-04-30 04:01 | -33.52671 | 151.70094 | 18697 ft | 385 kts | 34° |
| 2026-04-30 04:01 | -33.50409 | 151.71833 | 19232 ft | 389 kts | 30° |
| 2026-04-30 04:02 | -33.47969 | 151.73161 | 19770 ft | 393 kts | 19° |
| 2026-04-30 04:02 | -33.45321 | 151.74032 | 20341 ft | 395 kts | 14° |
| 2026-04-30 04:02 | -33.42638 | 151.74823 | 20890 ft | 398 kts | 14° |
| 2026-04-30 04:02 | -33.39935 | 151.75642 | 21413 ft | 402 kts | 15° |
| 2026-04-30 04:03 | -33.37216 | 151.76492 | 21927 ft | 406 kts | 15° |
| 2026-04-30 04:03 | -33.34472 | 151.77370 | 22434 ft | 409 kts | 15° |
| 2026-04-30 04:03 | -33.31711 | 151.78264 | 22940 ft | 412 kts | 16° |
| 2026-04-30 04:03 | -33.28925 | 151.79170 | 23439 ft | 416 kts | 16° |
| 2026-04-30 04:04 | -33.26153 | 151.80070 | 23921 ft | 419 kts | 16° |
| 2026-04-30 04:04 | -33.23322 | 151.80988 | 24333 ft | 422 kts | 16° |
| 2026-04-30 04:04 | -33.20471 | 151.81909 | 24742 ft | 425 kts | 15° |
| 2026-04-30 04:04 | -33.17608 | 151.82833 | 25159 ft | 427 kts | 15° |
| 2026-04-30 04:05 | -33.14723 | 151.83763 | 25565 ft | 430 kts | 15° |
| 2026-04-30 04:05 | -33.11816 | 151.84698 | 25952 ft | 433 kts | 15° |
| 2026-04-30 04:05 | -33.08932 | 151.85626 | 26333 ft | 436 kts | 15° |
| 2026-04-30 04:05 | -33.05991 | 151.86570 | 26715 ft | 438 kts | 15° |
| 2026-04-30 04:06 | -33.03036 | 151.87519 | 27087 ft | 441 kts | 15° |
| 2026-04-30 04:06 | -33.00063 | 151.88473 | 27457 ft | 443 kts | 15° |
| 2026-04-30 04:06 | -32.97072 | 151.89431 | 27811 ft | 446 kts | 15° |
| 2026-04-30 04:06 | -32.95083 | 151.90069 | 28047 ft | 448 kts | 15° |
| 2026-04-30 04:07 | -32.92064 | 151.91036 | 28402 ft | 450 kts | 15° |
| 2026-04-30 04:07 | -32.89024 | 151.92008 | 28731 ft | 453 kts | 15° |
| 2026-04-30 04:07 | -32.85965 | 151.92987 | 28988 ft | 457 kts | 15° |
| 2026-04-30 04:08 | -32.79816 | 151.94951 | 29722 ft | 460 kts | 15° |
| 2026-04-30 04:08 | -32.76712 | 151.95942 | 30010 ft | 463 kts | 15° |
| 2026-04-30 04:08 | -32.73585 | 151.96938 | 30278 ft | 466 kts | 15° |
| 2026-04-30 04:08 | -32.70446 | 151.97938 | 30590 ft | 467 kts | 15° |
| 2026-04-30 04:09 | -32.67303 | 151.98939 | 31024 ft | 464 kts | 15° |
| 2026-04-30 04:09 | -32.64194 | 151.99929 | 31448 ft | 462 kts | 14° |
| 2026-04-30 04:09 | -32.61086 | 152.00917 | 31805 ft | 462 kts | 14° |
| 2026-04-30 04:09 | -32.58019 | 152.01892 | 32128 ft | 462 kts | 14° |
| 2026-04-30 04:10 | -32.54912 | 152.02879 | 32480 ft | 461 kts | 14° |
| 2026-04-30 04:10 | -32.51811 | 152.03863 | 32811 ft | 460 kts | 14° |
| 2026-04-30 04:10 | -32.48717 | 152.04844 | 33194 ft | 459 kts | 14° |
| 2026-04-30 04:10 | -32.45634 | 152.05821 | 33560 ft | 457 kts | 14° |
| 2026-04-30 04:11 | -32.42564 | 152.06793 | 33912 ft | 456 kts | 14° |
| 2026-04-30 04:11 | -32.39496 | 152.07763 | 34240 ft | 456 kts | 14° |
| 2026-04-30 04:11 | -32.36476 | 152.08718 | 34539 ft | 455 kts | 14° |
| 2026-04-30 04:11 | -32.33418 | 152.09687 | 34797 ft | 454 kts | 14° |
| 2026-04-30 04:12 | -32.30365 | 152.10651 | 35041 ft | 454 kts | 14° |
| 2026-04-30 04:12 | -32.27297 | 152.11618 | 35252 ft | 455 kts | 13° |
| 2026-04-30 04:12 | -32.24237 | 152.12582 | 35394 ft | 455 kts | 13° |
| 2026-04-30 04:13 | -32.18052 | 152.14528 | 35394 ft | 464 kts | 13° |
| 2026-04-30 04:13 | -32.11797 | 152.16493 | 35397 ft | 472 kts | 13° |
| 2026-04-30 04:14 | -32.05397 | 152.18502 | 35396 ft | 477 kts | 13° |
| 2026-04-30 04:14 | -31.98966 | 152.20520 | 35386 ft | 478 kts | 13° |
| 2026-04-30 04:15 | -31.92532 | 152.22535 | 35389 ft | 478 kts | 13° |
| 2026-04-30 04:15 | -31.86140 | 152.24534 | 35385 ft | 477 kts | 13° |
| 2026-04-30 04:16 | -31.79719 | 152.26539 | 35389 ft | 476 kts | 13° |
| 2026-04-30 04:16 | -31.73307 | 152.28538 | 35383 ft | 475 kts | 13° |
| 2026-04-30 04:17 | -31.66910 | 152.30529 | 35392 ft | 475 kts | 13° |
| 2026-04-30 04:17 | -31.60549 | 152.32507 | 35385 ft | 474 kts | 13° |
| 2026-04-30 04:18 | -31.54160 | 152.34490 | 35383 ft | 474 kts | 13° |
| 2026-04-30 04:18 | -31.47837 | 152.36450 | 35386 ft | 473 kts | 13° |
| 2026-04-30 04:19 | -31.41474 | 152.38420 | 35388 ft | 472 kts | 13° |
| 2026-04-30 04:19 | -31.35109 | 152.40387 | 35385 ft | 472 kts | 13° |
| 2026-04-30 04:20 | -31.28747 | 152.42350 | 35377 ft | 472 kts | 12° |
| 2026-04-30 04:20 | -31.22397 | 152.44307 | 35383 ft | 472 kts | 13° |
| 2026-04-30 04:21 | -31.16091 | 152.46249 | 35388 ft | 472 kts | 12° |
| 2026-04-30 04:21 | -31.09738 | 152.48203 | 35382 ft | 472 kts | 13° |
| 2026-04-30 04:22 | -31.03385 | 152.50152 | 35379 ft | 472 kts | 13° |
| 2026-04-30 04:22 | -30.97027 | 152.52100 | 35379 ft | 473 kts | 12° |
| 2026-04-30 04:23 | -30.90652 | 152.54050 | 35382 ft | 473 kts | 13° |
| 2026-04-30 04:23 | -30.84317 | 152.55985 | 35374 ft | 473 kts | 12° |
| 2026-04-30 04:24 | -30.77952 | 152.57955 | 35380 ft | 473 kts | 14° |
| 2026-04-30 04:24 | -30.71648 | 152.60232 | 35383 ft | 474 kts | 16° |
| 2026-04-30 04:25 | -30.65362 | 152.62595 | 35384 ft | 474 kts | 15° |
| 2026-04-30 04:25 | -30.59098 | 152.64907 | 35376 ft | 474 kts | 15° |
| 2026-04-30 04:26 | -30.52792 | 152.67198 | 35391 ft | 474 kts | 15° |
| 2026-04-30 04:26 | -30.46535 | 152.69459 | 35376 ft | 474 kts | 15° |
| 2026-04-30 04:27 | -30.40236 | 152.71733 | 35378 ft | 474 kts | 15° |
| 2026-04-30 04:27 | -30.33931 | 152.74008 | 35378 ft | 474 kts | 15° |
| 2026-04-30 04:28 | -30.27636 | 152.76277 | 35374 ft | 474 kts | 15° |
| 2026-04-30 04:28 | -30.21367 | 152.78534 | 35373 ft | 474 kts | 15° |
| 2026-04-30 04:29 | -30.15060 | 152.80800 | 35367 ft | 474 kts | 14° |
| 2026-04-30 04:29 | -30.08748 | 152.83065 | 35366 ft | 474 kts | 14° |
| 2026-04-30 04:30 | -30.02481 | 152.85311 | 35371 ft | 474 kts | 14° |
| 2026-04-30 04:30 | -29.96181 | 152.87565 | 35358 ft | 474 kts | 14° |
| 2026-04-30 04:31 | -29.89873 | 152.89820 | 35358 ft | 474 kts | 14° |
| 2026-04-30 04:31 | -29.83561 | 152.92064 | 35345 ft | 474 kts | 14° |
| 2026-04-30 04:32 | -29.77287 | 152.94287 | 35347 ft | 474 kts | 14° |
| 2026-04-30 04:32 | -29.70965 | 152.96524 | 35355 ft | 474 kts | 14° |
| 2026-04-30 04:33 | -29.64647 | 152.98756 | 35343 ft | 474 kts | 14° |
| 2026-04-30 04:33 | -29.58373 | 153.00971 | 35345 ft | 474 kts | 14° |
| 2026-04-30 04:34 | -29.52049 | 153.03200 | 35343 ft | 475 kts | 14° |
| 2026-04-30 04:34 | -29.45728 | 153.05425 | 35340 ft | 475 kts | 14° |
| 2026-04-30 04:35 | -29.39400 | 153.07649 | 35335 ft | 475 kts | 14° |
| 2026-04-30 04:35 | -29.33109 | 153.09857 | 35339 ft | 476 kts | 14° |
| 2026-04-30 04:36 | -29.26769 | 153.12082 | 35338 ft | 476 kts | 14° |
| 2026-04-30 04:36 | -29.20428 | 153.14319 | 35324 ft | 476 kts | 14° |
| 2026-04-30 04:37 | -29.14131 | 153.16540 | 35333 ft | 476 kts | 14° |
| 2026-04-30 04:37 | -29.07780 | 153.18774 | 35334 ft | 476 kts | 14° |
| 2026-04-30 04:38 | -29.01465 | 153.20991 | 35332 ft | 477 kts | 14° |
| 2026-04-30 04:38 | -28.95072 | 153.23231 | 34638 ft | 483 kts | 14° |
| 2026-04-30 04:38 | -28.91866 | 153.24354 | 33945 ft | 480 kts | 14° |
| 2026-04-30 04:39 | -28.88678 | 153.25470 | 33372 ft | 476 kts | 14° |
| 2026-04-30 04:39 | -28.85562 | 153.26562 | 32859 ft | 471 kts | 14° |
| 2026-04-30 04:39 | -28.82438 | 153.27655 | 32363 ft | 467 kts | 14° |
| 2026-04-30 04:39 | -28.79345 | 153.28736 | 31873 ft | 462 kts | 14° |
| 2026-04-30 04:40 | -28.76277 | 153.29807 | 31392 ft | 458 kts | 15° |
| 2026-04-30 04:40 | -28.73237 | 153.30868 | 30918 ft | 454 kts | 15° |
| 2026-04-30 04:40 | -28.70228 | 153.31917 | 30442 ft | 450 kts | 14° |
| 2026-04-30 04:40 | -28.67244 | 153.32957 | 29896 ft | 446 kts | 14° |
| 2026-04-30 04:41 | -28.64328 | 153.33972 | 29378 ft | 442 kts | 14° |
| 2026-04-30 04:41 | -28.61402 | 153.34990 | 28891 ft | 437 kts | 15° |
| 2026-04-30 04:41 | -28.58509 | 153.35997 | 28389 ft | 432 kts | 14° |
| 2026-04-30 04:41 | -28.55644 | 153.36991 | 27917 ft | 428 kts | 14° |
| 2026-04-30 04:42 | -28.52812 | 153.37976 | 27457 ft | 424 kts | 15° |
| 2026-04-30 04:42 | -28.49991 | 153.38954 | 26974 ft | 420 kts | 14° |
| 2026-04-30 04:42 | -28.47200 | 153.39925 | 26502 ft | 417 kts | 15° |
| 2026-04-30 04:42 | -28.44435 | 153.40885 | 26043 ft | 414 kts | 13° |
| 2026-04-30 04:43 | -28.41724 | 153.41816 | 25602 ft | 411 kts | 14° |
| 2026-04-30 04:43 | -28.38992 | 153.42762 | 25151 ft | 409 kts | 15° |
| 2026-04-30 04:43 | -28.36277 | 153.43709 | 24688 ft | 407 kts | 14° |
| 2026-04-30 04:43 | -28.33570 | 153.44648 | 24221 ft | 406 kts | 15° |
| 2026-04-30 04:44 | -28.30873 | 153.45577 | 23753 ft | 404 kts | 15° |
| 2026-04-30 04:44 | -28.28184 | 153.46504 | 23234 ft | 402 kts | 15° |
| 2026-04-30 04:44 | -28.25513 | 153.47428 | 22757 ft | 399 kts | 16° |
| 2026-04-30 04:44 | -28.22864 | 153.48346 | 22316 ft | 396 kts | 16° |
| 2026-04-30 04:45 | -28.20269 | 153.49242 | 21873 ft | 392 kts | 16° |
| 2026-04-30 04:45 | -28.17648 | 153.50077 | 21427 ft | 389 kts | 9° |
| 2026-04-30 04:45 | -28.14972 | 153.50109 | 21039 ft | 384 kts | 351° |
| 2026-04-30 04:45 | -28.12354 | 153.49604 | 20631 ft | 381 kts | 349° |
| 2026-04-30 04:46 | -28.09756 | 153.49034 | 20204 ft | 379 kts | 349° |
| 2026-04-30 04:46 | -28.07170 | 153.48457 | 19776 ft | 378 kts | 349° |
| 2026-04-30 04:46 | -28.04592 | 153.47892 | 19341 ft | 377 kts | 350° |
| 2026-04-30 04:46 | -28.02016 | 153.47341 | 18903 ft | 376 kts | 351° |
| 2026-04-30 04:47 | -27.99448 | 153.46799 | 18434 ft | 375 kts | 351° |
| 2026-04-30 04:47 | -27.96877 | 153.46263 | 17957 ft | 374 kts | 351° |
| 2026-04-30 04:47 | -27.94358 | 153.45741 | 17519 ft | 372 kts | 352° |
| 2026-04-30 04:47 | -27.91816 | 153.45218 | 17080 ft | 369 kts | 351° |
| 2026-04-30 04:48 | -27.89289 | 153.44696 | 16642 ft | 367 kts | 352° |
| 2026-04-30 04:48 | -27.86782 | 153.44178 | 16222 ft | 364 kts | 352° |
| 2026-04-30 04:48 | -27.84292 | 153.43664 | 15803 ft | 362 kts | 351° |
| 2026-04-30 04:48 | -27.81843 | 153.43162 | 15385 ft | 359 kts | 351° |
| 2026-04-30 04:49 | -27.79388 | 153.42655 | 14979 ft | 357 kts | 351° |
| 2026-04-30 04:49 | -27.76946 | 153.42149 | 14568 ft | 355 kts | 352° |
| 2026-04-30 04:49 | -27.74519 | 153.41645 | 14156 ft | 354 kts | 351° |
| 2026-04-30 04:49 | -27.72095 | 153.41148 | 13695 ft | 352 kts | 352° |
| 2026-04-30 04:50 | -27.69723 | 153.40661 | 13278 ft | 350 kts | 352° |
| 2026-04-30 04:50 | -27.67322 | 153.40166 | 12850 ft | 348 kts | 352° |
| 2026-04-30 04:50 | -27.64949 | 153.39678 | 12451 ft | 345 kts | 351° |
| 2026-04-30 04:50 | -27.62588 | 153.39360 | 12126 ft | 339 kts | 1° |
| 2026-04-30 04:51 | -27.60243 | 153.39418 | 11883 ft | 335 kts | 5° |
| 2026-04-30 04:51 | -27.57944 | 153.39577 | 11627 ft | 335 kts | 7° |
| 2026-04-30 04:51 | -27.55590 | 153.39748 | 11377 ft | 339 kts | 6° |
| 2026-04-30 04:51 | -27.53238 | 153.39898 | 11206 ft | 336 kts | 6° |
| 2026-04-30 04:52 | -27.50929 | 153.40027 | 11049 ft | 327 kts | 5° |
| 2026-04-30 04:52 | -27.48682 | 153.40139 | 10890 ft | 318 kts | 5° |
| 2026-04-30 04:52 | -27.46493 | 153.40243 | 10731 ft | 309 kts | 6° |
| 2026-04-30 04:52 | -27.44401 | 153.40340 | 10443 ft | 303 kts | 5° |
| 2026-04-30 04:53 | -27.42288 | 153.40438 | 10085 ft | 304 kts | 6° |
| 2026-04-30 04:53 | -27.40201 | 153.40534 | 9700 ft | 297 kts | 5° |
| 2026-04-30 04:53 | -27.38130 | 153.40630 | 9190 ft | 299 kts | 5° |
| 2026-04-30 04:53 | -27.36046 | 153.40725 | 8921 ft | 301 kts | 5° |
| 2026-04-30 04:54 | -27.33941 | 153.40822 | 8590 ft | 301 kts | 5° |
| 2026-04-30 04:54 | -27.31887 | 153.40915 | 8312 ft | 298 kts | 5° |
| 2026-04-30 04:54 | -27.29821 | 153.41008 | 8037 ft | 295 kts | 6° |
| 2026-04-30 04:54 | -27.27809 | 153.41099 | 7784 ft | 293 kts | 6° |
| 2026-04-30 04:55 | -27.25775 | 153.41192 | 7521 ft | 291 kts | 6° |
| 2026-04-30 04:55 | -27.23761 | 153.41284 | 7255 ft | 289 kts | 6° |
| 2026-04-30 04:55 | -27.21757 | 153.41376 | 6997 ft | 287 kts | 6° |
| 2026-04-30 04:55 | -27.19766 | 153.41231 | 6698 ft | 291 kts | 344° |
| 2026-04-30 04:56 | -27.18005 | 153.40127 | 6461 ft | 290 kts | 323° |
| 2026-04-30 04:56 | -27.16482 | 153.38703 | 6182 ft | 287 kts | 321° |
| 2026-04-30 04:56 | -27.14983 | 153.37265 | 5915 ft | 278 kts | 321° |
| 2026-04-30 04:56 | -27.13698 | 153.35685 | 5624 ft | 271 kts | 297° |
| 2026-04-30 04:57 | -27.13222 | 153.33706 | 5391 ft | 258 kts | 267° |
| 2026-04-30 04:57 | -27.13465 | 153.31786 | 5183 ft | 243 kts | 247° |
| 2026-04-30 04:57 | -27.14113 | 153.30083 | 4971 ft | 232 kts | 240° |
| 2026-04-30 04:57 | -27.14800 | 153.28488 | 4767 ft | 223 kts | 240° |
| 2026-04-30 04:58 | -27.15242 | 153.27461 | 4611 ft | 218 kts | 239° |
| 2026-04-30 04:58 | -27.16259 | 153.25635 | 4531 ft | 200 kts | 210° |
| 2026-04-30 04:58 | -27.17503 | 153.24980 | 4350 ft | 200 kts | 197° |
| 2026-04-30 04:58 | -27.18747 | 153.24225 | 4073 ft | 204 kts | 206° |
| 2026-04-30 04:59 | -27.19970 | 153.23464 | 3813 ft | 197 kts | 201° |
| 2026-04-30 04:59 | -27.20777 | 153.23007 | 3639 ft | 194 kts | 200° |
| 2026-04-30 04:59 | -27.21968 | 153.22333 | 3397 ft | 190 kts | 201° |
| 2026-04-30 04:59 | -27.23155 | 153.21657 | 3137 ft | 193 kts | 200° |
| 2026-04-30 05:00 | -27.24729 | 153.20754 | 2813 ft | 193 kts | 201° |
| 2026-04-30 05:00 | -27.25543 | 153.20287 | 2640 ft | 195 kts | 201° |
| 2026-04-30 05:00 | -27.26751 | 153.19593 | 2370 ft | 195 kts | 201° |
| 2026-04-30 05:00 | -27.27934 | 153.18913 | 2095 ft | 190 kts | 201° |
| 2026-04-30 05:01 | -27.29088 | 153.18249 | 1856 ft | 181 kts | 202° |
| 2026-04-30 05:01 | -27.30153 | 153.17637 | 1623 ft | 171 kts | 201° |
| 2026-04-30 05:01 | -27.31179 | 153.17048 | 1399 ft | 159 kts | 202° |
| 2026-04-30 05:01 | -27.32135 | 153.16500 | 1224 ft | 154 kts | 201° |
| 2026-04-30 05:02 | -27.33086 | 153.15954 | 1016 ft | 150 kts | 199° |
| 2026-04-30 05:02 | -27.33989 | 153.15437 | 794 ft | 147 kts | 202° |
| 2026-04-30 05:02 | -27.34888 | 153.14921 | 625 ft | 145 kts | 204° |
| 2026-04-30 05:02 | -27.35820 | 153.14388 | 434 ft | 152 kts | 204° |
| 2026-04-30 05:03 | -27.36742 | 153.13849 | 237 ft | 148 kts | 207° |
| 2026-04-30 05:03 | -27.37644 | 153.13322 | 38 ft | 143 kts | 204° |
| 2026-04-30 05:03 | -27.38424 | 153.12885 | 21 ft | 98 kts | 208° |
| 2026-04-30 05:03 | -27.38841 | 153.12643 | 20 ft | 48 kts | 207° |
| 2026-04-30 05:04 | -27.38994 | 153.12471 | 18 ft | 20 kts | 234° |
| 2026-04-30 05:04 | -27.39067 | 153.12351 | 18 ft | 17 kts | 236° |
| 2026-04-30 05:04 | -27.39118 | 153.12261 | 19 ft | 12 kts | 238° |
| 2026-04-30 05:04 | -27.39131 | 153.12183 | 17 ft | 10 kts | 292° |
| 2026-04-30 05:05 | -27.39072 | 153.12133 | 18 ft | 11 kts | 326° |
| 2026-04-30 05:05 | -27.39025 | 153.12070 | 17 ft | 11 kts | 299° |
| 2026-04-30 05:05 | -27.38983 | 153.11998 | 17 ft | 11 kts | 301° |
| 2026-04-30 05:06 | -27.38910 | 153.11914 | 17 ft | 7 kts | 4° |
| 2026-04-30 05:06 | -27.38880 | 153.11917 | 17 ft | 0 kts | 8° |
| 2026-04-30 05:06 | -27.38879 | 153.11917 | 17 ft | 0 kts | 8° |